sensor_id;sensor_type;location;lat;lon;timestamp;P1;durP1;ratioP1;P2;durP2;ratioP2
16969;SDS011;8601;48.718;8.992;2023-04-26T00:02:24;11.20;;;6.67;;
16969;SDS011;8601;48.718;8.992;2023-04-26T00:04:52;10.40;;;6.70;;
16969;SDS011;8601;48.718;8.992;2023-04-26T00:07:20;8.13;;;6.90;;
16969;SDS011;8601;48.718;8.992;2023-04-26T00:09:48;7.50;;;6.23;;
16969;SDS011;8601;48.718;8.992;2023-04-26T00:12:17;8.10;;;6.77;;
16969;SDS011;8601;48.718;8.992;2023-04-26T00:14:44;7.10;;;5.80;;
16969;SDS011;8601;48.718;8.992;2023-04-26T00:17:11;7.57;;;6.23;;
16969;SDS011;8601;48.718;8.992;2023-04-26T00:19:38;7.93;;;6.70;;
16969;SDS011;8601;48.718;8.992;2023-04-26T00:22:05;6.80;;;6.10;;
16969;SDS011;8601;48.718;8.992;2023-04-26T00:24:32;8.17;;;6.30;;
16969;SDS011;8601;48.718;8.992;2023-04-26T00:27:00;7.43;;;5.93;;
16969;SDS011;8601;48.718;8.992;2023-04-26T00:29:31;7.53;;;5.80;;
16969;SDS011;8601;48.718;8.992;2023-04-26T00:31:59;8.97;;;6.23;;
16969;SDS011;8601;48.718;8.992;2023-04-26T00:34:30;9.07;;;6.93;;
16969;SDS011;8601;48.718;8.992;2023-04-26T00:36:57;9.80;;;6.43;;
16969;SDS011;8601;48.718;8.992;2023-04-26T00:39:24;8.83;;;5.83;;
16969;SDS011;8601;48.718;8.992;2023-04-26T00:41:51;9.40;;;5.80;;
16969;SDS011;8601;48.718;8.992;2023-04-26T00:44:18;7.53;;;5.43;;
16969;SDS011;8601;48.718;8.992;2023-04-26T00:46:46;9.23;;;6.57;;
16969;SDS011;8601;48.718;8.992;2023-04-26T00:49:15;11.03;;;7.10;;
16969;SDS011;8601;48.718;8.992;2023-04-26T00:51:44;7.37;;;5.33;;
16969;SDS011;8601;48.718;8.992;2023-04-26T00:54:11;7.63;;;6.00;;
16969;SDS011;8601;48.718;8.992;2023-04-26T00:56:39;5.97;;;5.33;;
16969;SDS011;8601;48.718;8.992;2023-04-26T00:59:08;6.47;;;5.37;;
16969;SDS011;8601;48.718;8.992;2023-04-26T01:01:35;6.00;;;5.13;;
16969;SDS011;8601;48.718;8.992;2023-04-26T01:04:04;8.73;;;5.87;;
16969;SDS011;8601;48.718;8.992;2023-04-26T01:06:32;7.90;;;5.63;;
16969;SDS011;8601;48.718;8.992;2023-04-26T01:09:01;7.03;;;5.40;;
16969;SDS011;8601;48.718;8.992;2023-04-26T01:11:29;6.50;;;5.27;;
16969;SDS011;8601;48.718;8.992;2023-04-26T01:13:57;7.13;;;5.20;;
16969;SDS011;8601;48.718;8.992;2023-04-26T01:16:24;6.17;;;5.33;;
16969;SDS011;8601;48.718;8.992;2023-04-26T01:18:53;10.33;;;5.30;;
16969;SDS011;8601;48.718;8.992;2023-04-26T01:21:22;7.03;;;4.70;;
16969;SDS011;8601;48.718;8.992;2023-04-26T01:23:51;9.00;;;5.70;;
16969;SDS011;8601;48.718;8.992;2023-04-26T01:26:18;8.80;;;5.33;;
16969;SDS011;8601;48.718;8.992;2023-04-26T01:28:45;7.10;;;4.60;;
16969;SDS011;8601;48.718;8.992;2023-04-26T01:31:13;6.63;;;4.80;;
16969;SDS011;8601;48.718;8.992;2023-04-26T01:33:41;7.97;;;4.73;;
16969;SDS011;8601;48.718;8.992;2023-04-26T01:36:08;9.20;;;5.87;;
16969;SDS011;8601;48.718;8.992;2023-04-26T01:38:35;9.80;;;5.70;;
16969;SDS011;8601;48.718;8.992;2023-04-26T01:41:04;8.13;;;5.23;;
16969;SDS011;8601;48.718;8.992;2023-04-26T01:43:31;11.80;;;4.73;;
16969;SDS011;8601;48.718;8.992;2023-04-26T01:45:57;7.67;;;4.60;;
16969;SDS011;8601;48.718;8.992;2023-04-26T01:48:24;6.53;;;5.03;;
16969;SDS011;8601;48.718;8.992;2023-04-26T01:50:51;8.03;;;4.93;;
16969;SDS011;8601;48.718;8.992;2023-04-26T01:53:18;8.73;;;5.57;;
16969;SDS011;8601;48.718;8.992;2023-04-26T01:55:45;9.13;;;4.77;;
16969;SDS011;8601;48.718;8.992;2023-04-26T01:58:13;9.70;;;5.00;;
16969;SDS011;8601;48.718;8.992;2023-04-26T02:00:41;10.50;;;5.80;;
16969;SDS011;8601;48.718;8.992;2023-04-26T02:03:08;10.67;;;5.03;;
16969;SDS011;8601;48.718;8.992;2023-04-26T02:05:35;6.43;;;4.80;;
16969;SDS011;8601;48.718;8.992;2023-04-26T02:08:02;6.87;;;5.00;;
16969;SDS011;8601;48.718;8.992;2023-04-26T02:10:29;6.70;;;4.70;;
16969;SDS011;8601;48.718;8.992;2023-04-26T02:12:55;5.50;;;4.83;;
16969;SDS011;8601;48.718;8.992;2023-04-26T02:15:24;10.27;;;5.50;;
16969;SDS011;8601;48.718;8.992;2023-04-26T02:17:51;11.63;;;5.37;;
16969;SDS011;8601;48.718;8.992;2023-04-26T02:20:19;6.40;;;5.23;;
16969;SDS011;8601;48.718;8.992;2023-04-26T02:22:46;7.80;;;5.60;;
16969;SDS011;8601;48.718;8.992;2023-04-26T02:25:13;10.60;;;5.43;;
16969;SDS011;8601;48.718;8.992;2023-04-26T02:27:40;7.50;;;5.20;;
16969;SDS011;8601;48.718;8.992;2023-04-26T02:30:09;8.67;;;5.43;;
16969;SDS011;8601;48.718;8.992;2023-04-26T02:32:37;8.13;;;5.30;;
16969;SDS011;8601;48.718;8.992;2023-04-26T02:35:05;5.40;;;4.90;;
16969;SDS011;8601;48.718;8.992;2023-04-26T02:37:33;8.47;;;4.93;;
16969;SDS011;8601;48.718;8.992;2023-04-26T02:39:59;7.67;;;6.07;;
16969;SDS011;8601;48.718;8.992;2023-04-26T02:42:29;9.23;;;5.73;;
16969;SDS011;8601;48.718;8.992;2023-04-26T02:44:56;7.43;;;6.00;;
16969;SDS011;8601;48.718;8.992;2023-04-26T02:47:23;7.93;;;5.20;;
16969;SDS011;8601;48.718;8.992;2023-04-26T02:49:51;10.60;;;5.93;;
16969;SDS011;8601;48.718;8.992;2023-04-26T02:52:18;9.67;;;6.17;;
16969;SDS011;8601;48.718;8.992;2023-04-26T02:54:45;12.30;;;6.23;;
16969;SDS011;8601;48.718;8.992;2023-04-26T02:57:12;6.20;;;5.50;;
16969;SDS011;8601;48.718;8.992;2023-04-26T02:59:39;8.03;;;5.40;;
16969;SDS011;8601;48.718;8.992;2023-04-26T03:02:09;9.00;;;5.97;;
16969;SDS011;8601;48.718;8.992;2023-04-26T03:04:35;10.40;;;6.10;;
16969;SDS011;8601;48.718;8.992;2023-04-26T03:07:05;9.27;;;6.00;;
16969;SDS011;8601;48.718;8.992;2023-04-26T03:09:32;10.53;;;6.60;;
16969;SDS011;8601;48.718;8.992;2023-04-26T03:12:02;10.30;;;6.10;;
16969;SDS011;8601;48.718;8.992;2023-04-26T03:14:29;7.93;;;6.00;;
16969;SDS011;8601;48.718;8.992;2023-04-26T03:16:57;10.60;;;5.70;;
16969;SDS011;8601;48.718;8.992;2023-04-26T03:19:24;6.10;;;5.50;;
16969;SDS011;8601;48.718;8.992;2023-04-26T03:21:51;9.73;;;6.30;;
16969;SDS011;8601;48.718;8.992;2023-04-26T03:24:19;9.13;;;6.47;;
16969;SDS011;8601;48.718;8.992;2023-04-26T03:26:46;8.97;;;6.33;;
16969;SDS011;8601;48.718;8.992;2023-04-26T03:29:13;10.90;;;5.93;;
16969;SDS011;8601;48.718;8.992;2023-04-26T03:31:40;8.97;;;7.30;;
16969;SDS011;8601;48.718;8.992;2023-04-26T03:34:07;7.27;;;6.57;;
16969;SDS011;8601;48.718;8.992;2023-04-26T03:36:33;9.20;;;6.93;;
16969;SDS011;8601;48.718;8.992;2023-04-26T03:39:00;12.07;;;6.83;;
16969;SDS011;8601;48.718;8.992;2023-04-26T03:41:29;8.10;;;6.83;;
16969;SDS011;8601;48.718;8.992;2023-04-26T03:43:57;8.63;;;7.03;;
16969;SDS011;8601;48.718;8.992;2023-04-26T03:46:24;11.00;;;7.07;;
16969;SDS011;8601;48.718;8.992;2023-04-26T03:48:51;8.23;;;6.90;;
16969;SDS011;8601;48.718;8.992;2023-04-26T03:51:18;9.47;;;8.30;;
16969;SDS011;8601;48.718;8.992;2023-04-26T03:53:44;9.47;;;7.70;;
16969;SDS011;8601;48.718;8.992;2023-04-26T03:56:12;11.43;;;8.10;;
16969;SDS011;8601;48.718;8.992;2023-04-26T03:58:41;12.30;;;8.30;;
16969;SDS011;8601;48.718;8.992;2023-04-26T04:01:08;13.43;;;9.03;;
16969;SDS011;8601;48.718;8.992;2023-04-26T04:03:35;13.00;;;8.27;;
16969;SDS011;8601;48.718;8.992;2023-04-26T04:06:02;12.80;;;7.97;;
16969;SDS011;8601;48.718;8.992;2023-04-26T04:08:29;12.23;;;8.53;;
16969;SDS011;8601;48.718;8.992;2023-04-26T04:10:56;11.07;;;8.20;;
16969;SDS011;8601;48.718;8.992;2023-04-26T04:13:23;11.33;;;7.90;;
16969;SDS011;8601;48.718;8.992;2023-04-26T04:15:51;9.57;;;8.47;;
16969;SDS011;8601;48.718;8.992;2023-04-26T04:18:18;15.67;;;8.80;;
16969;SDS011;8601;48.718;8.992;2023-04-26T04:20:45;13.03;;;9.33;;
16969;SDS011;8601;48.718;8.992;2023-04-26T04:23:12;11.60;;;8.63;;
16969;SDS011;8601;48.718;8.992;2023-04-26T04:25:39;13.97;;;9.73;;
16969;SDS011;8601;48.718;8.992;2023-04-26T04:28:05;14.57;;;9.43;;
16969;SDS011;8601;48.718;8.992;2023-04-26T04:30:32;14.73;;;9.57;;
16969;SDS011;8601;48.718;8.992;2023-04-26T04:33:01;12.50;;;9.53;;
16969;SDS011;8601;48.718;8.992;2023-04-26T04:35:29;12.93;;;9.23;;
16969;SDS011;8601;48.718;8.992;2023-04-26T04:37:57;12.93;;;8.50;;
16969;SDS011;8601;48.718;8.992;2023-04-26T04:40:24;12.27;;;8.90;;
16969;SDS011;8601;48.718;8.992;2023-04-26T04:42:51;12.00;;;8.60;;
16969;SDS011;8601;48.718;8.992;2023-04-26T04:45:19;11.80;;;8.67;;
16969;SDS011;8601;48.718;8.992;2023-04-26T04:47:46;12.00;;;8.83;;
16969;SDS011;8601;48.718;8.992;2023-04-26T04:50:15;13.87;;;8.93;;
16969;SDS011;8601;48.718;8.992;2023-04-26T04:52:41;14.27;;;9.60;;
16969;SDS011;8601;48.718;8.992;2023-04-26T04:55:09;11.27;;;8.93;;
16969;SDS011;8601;48.718;8.992;2023-04-26T04:57:36;12.73;;;8.33;;
16969;SDS011;8601;48.718;8.992;2023-04-26T05:00:03;11.67;;;8.60;;
16969;SDS011;8601;48.718;8.992;2023-04-26T05:02:34;10.23;;;7.47;;
16969;SDS011;8601;48.718;8.992;2023-04-26T05:05:01;11.70;;;8.80;;
16969;SDS011;8601;48.718;8.992;2023-04-26T05:07:30;9.03;;;8.13;;
16969;SDS011;8601;48.718;8.992;2023-04-26T05:09:57;10.73;;;8.23;;
16969;SDS011;8601;48.718;8.992;2023-04-26T05:12:24;10.20;;;8.50;;
16969;SDS011;8601;48.718;8.992;2023-04-26T05:14:50;10.10;;;8.07;;
16969;SDS011;8601;48.718;8.992;2023-04-26T05:17:17;13.80;;;9.23;;
16969;SDS011;8601;48.718;8.992;2023-04-26T05:19:44;11.03;;;8.40;;
16969;SDS011;8601;48.718;8.992;2023-04-26T05:22:13;13.27;;;9.03;;
16969;SDS011;8601;48.718;8.992;2023-04-26T05:24:45;11.27;;;8.37;;
16969;SDS011;8601;48.718;8.992;2023-04-26T05:27:12;12.67;;;8.20;;
16969;SDS011;8601;48.718;8.992;2023-04-26T05:29:39;10.77;;;9.33;;
16969;SDS011;8601;48.718;8.992;2023-04-26T05:32:06;11.63;;;8.83;;
16969;SDS011;8601;48.718;8.992;2023-04-26T05:34:33;11.20;;;9.60;;
16969;SDS011;8601;48.718;8.992;2023-04-26T05:37:00;12.47;;;8.17;;
16969;SDS011;8601;48.718;8.992;2023-04-26T05:39:28;10.53;;;8.57;;
16969;SDS011;8601;48.718;8.992;2023-04-26T05:41:57;13.83;;;9.50;;
16969;SDS011;8601;48.718;8.992;2023-04-26T05:44:25;11.53;;;9.27;;
16969;SDS011;8601;48.718;8.992;2023-04-26T05:46:52;12.23;;;9.53;;
16969;SDS011;8601;48.718;8.992;2023-04-26T05:49:20;13.47;;;10.10;;
16969;SDS011;8601;48.718;8.992;2023-04-26T05:51:47;12.60;;;9.30;;
16969;SDS011;8601;48.718;8.992;2023-04-26T05:54:14;13.77;;;10.33;;
16969;SDS011;8601;48.718;8.992;2023-04-26T05:56:40;13.00;;;10.03;;
16969;SDS011;8601;48.718;8.992;2023-04-26T05:59:09;16.50;;;10.37;;
16969;SDS011;8601;48.718;8.992;2023-04-26T06:01:36;18.60;;;11.27;;
16969;SDS011;8601;48.718;8.992;2023-04-26T06:04:03;14.97;;;11.27;;
16969;SDS011;8601;48.718;8.992;2023-04-26T06:06:30;12.60;;;10.77;;
16969;SDS011;8601;48.718;8.992;2023-04-26T06:08:57;15.10;;;11.07;;
16969;SDS011;8601;48.718;8.992;2023-04-26T06:11:24;11.67;;;10.07;;
16969;SDS011;8601;48.718;8.992;2023-04-26T06:13:51;16.87;;;10.63;;
16969;SDS011;8601;48.718;8.992;2023-04-26T06:16:19;13.87;;;10.27;;
16969;SDS011;8601;48.718;8.992;2023-04-26T06:18:47;14.47;;;10.43;;
16969;SDS011;8601;48.718;8.992;2023-04-26T06:21:14;13.93;;;10.90;;
16969;SDS011;8601;48.718;8.992;2023-04-26T06:23:41;13.17;;;10.03;;
16969;SDS011;8601;48.718;8.992;2023-04-26T06:26:09;16.43;;;9.93;;
16969;SDS011;8601;48.718;8.992;2023-04-26T06:28:35;15.77;;;9.37;;
16969;SDS011;8601;48.718;8.992;2023-04-26T06:31:02;14.83;;;9.70;;
16969;SDS011;8601;48.718;8.992;2023-04-26T06:33:31;13.03;;;9.37;;
16969;SDS011;8601;48.718;8.992;2023-04-26T06:35:57;13.40;;;8.67;;
16969;SDS011;8601;48.718;8.992;2023-04-26T06:38:24;13.50;;;9.37;;
16969;SDS011;8601;48.718;8.992;2023-04-26T06:40:51;11.07;;;8.43;;
16969;SDS011;8601;48.718;8.992;2023-04-26T06:43:18;11.70;;;8.93;;
16969;SDS011;8601;48.718;8.992;2023-04-26T06:45:45;11.50;;;8.07;;
16969;SDS011;8601;48.718;8.992;2023-04-26T06:48:12;11.53;;;8.57;;
16969;SDS011;8601;48.718;8.992;2023-04-26T06:50:40;8.20;;;6.53;;
16969;SDS011;8601;48.718;8.992;2023-04-26T06:53:07;6.47;;;4.90;;
16969;SDS011;8601;48.718;8.992;2023-04-26T06:55:34;7.53;;;4.87;;
16969;SDS011;8601;48.718;8.992;2023-04-26T06:58:01;7.03;;;5.50;;
16969;SDS011;8601;48.718;8.992;2023-04-26T07:00:28;9.03;;;5.27;;
16969;SDS011;8601;48.718;8.992;2023-04-26T07:02:54;7.97;;;5.30;;
16969;SDS011;8601;48.718;8.992;2023-04-26T07:05:21;6.20;;;5.50;;
16969;SDS011;8601;48.718;8.992;2023-04-26T07:07:50;8.53;;;4.40;;
16969;SDS011;8601;48.718;8.992;2023-04-26T07:10:17;7.83;;;4.93;;
16969;SDS011;8601;48.718;8.992;2023-04-26T07:12:45;9.17;;;4.77;;
16969;SDS011;8601;48.718;8.992;2023-04-26T07:15:12;6.87;;;4.43;;
16969;SDS011;8601;48.718;8.992;2023-04-26T07:17:39;7.80;;;3.73;;
16969;SDS011;8601;48.718;8.992;2023-04-26T07:20:06;9.03;;;4.63;;
16969;SDS011;8601;48.718;8.992;2023-04-26T07:22:34;6.70;;;4.20;;
16969;SDS011;8601;48.718;8.992;2023-04-26T07:25:02;10.43;;;4.87;;
16969;SDS011;8601;48.718;8.992;2023-04-26T07:27:30;8.77;;;4.53;;
16969;SDS011;8601;48.718;8.992;2023-04-26T07:29:57;7.83;;;4.60;;
16969;SDS011;8601;48.718;8.992;2023-04-26T07:32:24;5.97;;;5.10;;
16969;SDS011;8601;48.718;8.992;2023-04-26T07:34:50;7.90;;;4.80;;
16969;SDS011;8601;48.718;8.992;2023-04-26T07:37:17;5.23;;;4.03;;
16969;SDS011;8601;48.718;8.992;2023-04-26T07:39:45;4.83;;;4.10;;
16969;SDS011;8601;48.718;8.992;2023-04-26T07:42:14;6.80;;;4.40;;
16969;SDS011;8601;48.718;8.992;2023-04-26T07:44:40;6.57;;;4.07;;
16969;SDS011;8601;48.718;8.992;2023-04-26T07:47:10;7.10;;;4.07;;
16969;SDS011;8601;48.718;8.992;2023-04-26T07:49:38;5.83;;;4.17;;
16969;SDS011;8601;48.718;8.992;2023-04-26T07:52:06;6.70;;;4.63;;
16969;SDS011;8601;48.718;8.992;2023-04-26T07:54:34;7.30;;;4.13;;
16969;SDS011;8601;48.718;8.992;2023-04-26T07:57:00;5.67;;;4.00;;
16969;SDS011;8601;48.718;8.992;2023-04-26T07:59:29;7.53;;;4.40;;
16969;SDS011;8601;48.718;8.992;2023-04-26T08:01:56;8.17;;;4.97;;
16969;SDS011;8601;48.718;8.992;2023-04-26T08:04:29;9.63;;;4.87;;
16969;SDS011;8601;48.718;8.992;2023-04-26T08:06:57;7.43;;;4.57;;
16969;SDS011;8601;48.718;8.992;2023-04-26T08:09:25;9.50;;;4.87;;
16969;SDS011;8601;48.718;8.992;2023-04-26T08:11:52;6.93;;;4.23;;
16969;SDS011;8601;48.718;8.992;2023-04-26T08:14:19;6.37;;;3.90;;
16969;SDS011;8601;48.718;8.992;2023-04-26T08:16:48;6.60;;;3.80;;
16969;SDS011;8601;48.718;8.992;2023-04-26T08:19:15;5.53;;;3.80;;
16969;SDS011;8601;48.718;8.992;2023-04-26T08:21:42;9.33;;;4.37;;
16969;SDS011;8601;48.718;8.992;2023-04-26T08:24:09;8.40;;;4.93;;
16969;SDS011;8601;48.718;8.992;2023-04-26T08:26:36;6.30;;;4.40;;
16969;SDS011;8601;48.718;8.992;2023-04-26T08:29:03;6.57;;;4.13;;
16969;SDS011;8601;48.718;8.992;2023-04-26T08:31:30;5.87;;;4.23;;
16969;SDS011;8601;48.718;8.992;2023-04-26T08:33:58;7.37;;;4.13;;
16969;SDS011;8601;48.718;8.992;2023-04-26T08:36:25;9.67;;;4.30;;
16969;SDS011;8601;48.718;8.992;2023-04-26T08:38:52;8.37;;;4.20;;
16969;SDS011;8601;48.718;8.992;2023-04-26T08:41:22;4.87;;;3.53;;
16969;SDS011;8601;48.718;8.992;2023-04-26T08:43:50;6.60;;;4.43;;
16969;SDS011;8601;48.718;8.992;2023-04-26T08:46:18;5.67;;;4.10;;
16969;SDS011;8601;48.718;8.992;2023-04-26T08:48:47;6.73;;;5.27;;
16969;SDS011;8601;48.718;8.992;2023-04-26T08:51:21;7.03;;;4.00;;
16969;SDS011;8601;48.718;8.992;2023-04-26T08:53:48;11.93;;;4.87;;
16969;SDS011;8601;48.718;8.992;2023-04-26T08:56:17;6.10;;;3.97;;
16969;SDS011;8601;48.718;8.992;2023-04-26T08:58:47;7.43;;;4.53;;
16969;SDS011;8601;48.718;8.992;2023-04-26T09:01:14;7.70;;;4.20;;
16969;SDS011;8601;48.718;8.992;2023-04-26T09:03:43;10.10;;;4.30;;
16969;SDS011;8601;48.718;8.992;2023-04-26T09:06:10;5.77;;;4.37;;
16969;SDS011;8601;48.718;8.992;2023-04-26T09:08:40;5.60;;;4.60;;
16969;SDS011;8601;48.718;8.992;2023-04-26T09:11:08;6.23;;;4.73;;
16969;SDS011;8601;48.718;8.992;2023-04-26T09:13:35;7.00;;;4.33;;
16969;SDS011;8601;48.718;8.992;2023-04-26T09:16:02;6.50;;;4.10;;
16969;SDS011;8601;48.718;8.992;2023-04-26T09:18:29;8.87;;;4.63;;
16969;SDS011;8601;48.718;8.992;2023-04-26T09:21:01;7.10;;;4.10;;
16969;SDS011;8601;48.718;8.992;2023-04-26T09:23:30;7.57;;;3.73;;
16969;SDS011;8601;48.718;8.992;2023-04-26T09:28:44;5.63;;;4.20;;
16969;SDS011;8601;48.718;8.992;2023-04-26T09:31:12;10.23;;;4.70;;
16969;SDS011;8601;48.718;8.992;2023-04-26T09:34:01;5.33;;;3.87;;
16969;SDS011;8601;48.718;8.992;2023-04-26T09:36:28;7.93;;;4.03;;
16969;SDS011;8601;48.718;8.992;2023-04-26T09:38:56;6.80;;;3.70;;
16969;SDS011;8601;48.718;8.992;2023-04-26T09:41:24;8.27;;;4.53;;
16969;SDS011;8601;48.718;8.992;2023-04-26T09:44:19;6.97;;;3.83;;
16969;SDS011;8601;48.718;8.992;2023-04-26T09:46:56;6.10;;;3.70;;
16969;SDS011;8601;48.718;8.992;2023-04-26T09:49:29;6.60;;;3.97;;
16969;SDS011;8601;48.718;8.992;2023-04-26T09:52:00;5.30;;;4.30;;
16969;SDS011;8601;48.718;8.992;2023-04-26T09:54:42;6.83;;;4.00;;
16969;SDS011;8601;48.718;8.992;2023-04-26T09:57:12;5.93;;;4.00;;
16969;SDS011;8601;48.718;8.992;2023-04-26T09:59:41;4.73;;;3.50;;
16969;SDS011;8601;48.718;8.992;2023-04-26T10:02:09;5.00;;;3.20;;
16969;SDS011;8601;48.718;8.992;2023-04-26T10:04:40;8.17;;;3.40;;
16969;SDS011;8601;48.718;8.992;2023-04-26T10:07:11;6.73;;;3.30;;
16969;SDS011;8601;48.718;8.992;2023-04-26T10:09:38;5.67;;;3.50;;
16969;SDS011;8601;48.718;8.992;2023-04-26T10:12:06;5.60;;;3.80;;
16969;SDS011;8601;48.718;8.992;2023-04-26T10:14:36;7.30;;;4.10;;
16969;SDS011;8601;48.718;8.992;2023-04-26T10:17:03;5.63;;;3.40;;
16969;SDS011;8601;48.718;8.992;2023-04-26T10:19:31;4.90;;;3.30;;
16969;SDS011;8601;48.718;8.992;2023-04-26T10:22:00;4.97;;;3.73;;
16969;SDS011;8601;48.718;8.992;2023-04-26T10:24:31;4.07;;;3.63;;
16969;SDS011;8601;48.718;8.992;2023-04-26T10:27:00;3.50;;;3.10;;
16969;SDS011;8601;48.718;8.992;2023-04-26T10:32:30;4.03;;;3.00;;
16969;SDS011;8601;48.718;8.992;2023-04-26T10:35:09;3.87;;;3.27;;
16969;SDS011;8601;48.718;8.992;2023-04-26T10:37:50;5.13;;;3.70;;
16969;SDS011;8601;48.718;8.992;2023-04-26T10:40:36;5.20;;;3.23;;
16969;SDS011;8601;48.718;8.992;2023-04-26T10:45:55;6.30;;;3.00;;
16969;SDS011;8601;48.718;8.992;2023-04-26T10:48:27;10.13;;;3.13;;
16969;SDS011;8601;48.718;8.992;2023-04-26T10:51:07;7.57;;;2.77;;
16969;SDS011;8601;48.718;8.992;2023-04-26T10:59:19;5.07;;;2.87;;
16969;SDS011;8601;48.718;8.992;2023-04-26T11:01:47;5.47;;;3.07;;
16969;SDS011;8601;48.718;8.992;2023-04-26T11:04:16;5.20;;;2.90;;
16969;SDS011;8601;48.718;8.992;2023-04-26T11:06:46;5.07;;;2.80;;
16969;SDS011;8601;48.718;8.992;2023-04-26T11:09:33;4.20;;;3.00;;
16969;SDS011;8601;48.718;8.992;2023-04-26T11:12:05;5.93;;;2.87;;
16969;SDS011;8601;48.718;8.992;2023-04-26T11:14:36;4.27;;;2.40;;
16969;SDS011;8601;48.718;8.992;2023-04-26T11:17:03;3.43;;;2.40;;
16969;SDS011;8601;48.718;8.992;2023-04-26T11:19:33;3.37;;;2.40;;
16969;SDS011;8601;48.718;8.992;2023-04-26T11:22:01;3.23;;;2.53;;
16969;SDS011;8601;48.718;8.992;2023-04-26T11:24:31;7.33;;;3.10;;
16969;SDS011;8601;48.718;8.992;2023-04-26T11:27:00;4.27;;;2.57;;
16969;SDS011;8601;48.718;8.992;2023-04-26T11:29:33;5.50;;;3.17;;
16969;SDS011;8601;48.718;8.992;2023-04-26T11:32:00;3.77;;;2.70;;
16969;SDS011;8601;48.718;8.992;2023-04-26T11:34:30;3.80;;;2.40;;
16969;SDS011;8601;48.718;8.992;2023-04-26T11:36:58;4.90;;;2.70;;
16969;SDS011;8601;48.718;8.992;2023-04-26T11:39:27;5.17;;;2.50;;
16969;SDS011;8601;48.718;8.992;2023-04-26T11:41:55;5.17;;;2.70;;
16969;SDS011;8601;48.718;8.992;2023-04-26T11:44:30;4.53;;;2.53;;
16969;SDS011;8601;48.718;8.992;2023-04-26T11:46:57;4.53;;;2.80;;
16969;SDS011;8601;48.718;8.992;2023-04-26T11:49:25;4.43;;;2.80;;
16969;SDS011;8601;48.718;8.992;2023-04-26T11:51:53;5.23;;;3.10;;
16969;SDS011;8601;48.718;8.992;2023-04-26T11:54:28;7.23;;;3.07;;
16969;SDS011;8601;48.718;8.992;2023-04-26T11:56:55;5.30;;;3.13;;
16969;SDS011;8601;48.718;8.992;2023-04-26T11:59:23;3.67;;;2.60;;
16969;SDS011;8601;48.718;8.992;2023-04-26T12:01:50;7.73;;;3.70;;
16969;SDS011;8601;48.718;8.992;2023-04-26T12:04:17;8.10;;;3.27;;
16969;SDS011;8601;48.718;8.992;2023-04-26T12:06:45;4.67;;;3.00;;
16969;SDS011;8601;48.718;8.992;2023-04-26T12:09:13;3.77;;;2.77;;
16969;SDS011;8601;48.718;8.992;2023-04-26T12:11:42;4.40;;;3.03;;
16969;SDS011;8601;48.718;8.992;2023-04-26T12:14:14;4.73;;;2.80;;
16969;SDS011;8601;48.718;8.992;2023-04-26T12:16:41;5.33;;;2.50;;
16969;SDS011;8601;48.718;8.992;2023-04-26T12:19:08;7.53;;;3.40;;
16969;SDS011;8601;48.718;8.992;2023-04-26T12:21:40;3.87;;;2.77;;
16969;SDS011;8601;48.718;8.992;2023-04-26T12:24:08;5.93;;;3.30;;
16969;SDS011;8601;48.718;8.992;2023-04-26T12:26:50;5.53;;;2.80;;
16969;SDS011;8601;48.718;8.992;2023-04-26T12:29:17;5.40;;;2.83;;
16969;SDS011;8601;48.718;8.992;2023-04-26T12:31:44;3.37;;;2.80;;
16969;SDS011;8601;48.718;8.992;2023-04-26T12:34:12;4.87;;;3.10;;
16969;SDS011;8601;48.718;8.992;2023-04-26T12:36:39;4.27;;;2.40;;
16969;SDS011;8601;48.718;8.992;2023-04-26T12:39:08;4.43;;;2.77;;
16969;SDS011;8601;48.718;8.992;2023-04-26T12:41:37;3.80;;;2.80;;
16969;SDS011;8601;48.718;8.992;2023-04-26T12:44:06;5.70;;;3.03;;
16969;SDS011;8601;48.718;8.992;2023-04-26T12:46:33;3.77;;;2.33;;
16969;SDS011;8601;48.718;8.992;2023-04-26T12:49:00;3.33;;;2.53;;
16969;SDS011;8601;48.718;8.992;2023-04-26T12:51:28;5.80;;;2.53;;
16969;SDS011;8601;48.718;8.992;2023-04-26T12:53:55;3.57;;;2.80;;
16969;SDS011;8601;48.718;8.992;2023-04-26T12:56:22;5.80;;;2.87;;
16969;SDS011;8601;48.718;8.992;2023-04-26T12:58:49;4.47;;;2.87;;
16969;SDS011;8601;48.718;8.992;2023-04-26T13:01:18;4.43;;;3.47;;
16969;SDS011;8601;48.718;8.992;2023-04-26T13:03:45;4.60;;;2.57;;
16969;SDS011;8601;48.718;8.992;2023-04-26T13:06:12;4.97;;;2.33;;
16969;SDS011;8601;48.718;8.992;2023-04-26T13:08:40;4.33;;;2.60;;
16969;SDS011;8601;48.718;8.992;2023-04-26T13:11:07;3.07;;;2.53;;
16969;SDS011;8601;48.718;8.992;2023-04-26T13:13:33;6.10;;;3.23;;
16969;SDS011;8601;48.718;8.992;2023-04-26T13:16:01;3.10;;;2.40;;
16969;SDS011;8601;48.718;8.992;2023-04-26T13:18:29;4.90;;;2.50;;
16969;SDS011;8601;48.718;8.992;2023-04-26T13:20:56;3.90;;;2.70;;
16969;SDS011;8601;48.718;8.992;2023-04-26T13:23:23;5.20;;;2.57;;
16969;SDS011;8601;48.718;8.992;2023-04-26T13:25:50;4.47;;;2.60;;
16969;SDS011;8601;48.718;8.992;2023-04-26T13:28:17;3.00;;;2.70;;
16969;SDS011;8601;48.718;8.992;2023-04-26T13:30:44;3.90;;;2.27;;
16969;SDS011;8601;48.718;8.992;2023-04-26T13:33:11;4.17;;;2.57;;
16969;SDS011;8601;48.718;8.992;2023-04-26T13:35:40;3.33;;;2.63;;
16969;SDS011;8601;48.718;8.992;2023-04-26T13:38:07;6.07;;;2.50;;
16969;SDS011;8601;48.718;8.992;2023-04-26T13:40:35;3.47;;;2.57;;
16969;SDS011;8601;48.718;8.992;2023-04-26T13:43:02;4.57;;;2.63;;
16969;SDS011;8601;48.718;8.992;2023-04-26T13:45:29;2.80;;;2.50;;
16969;SDS011;8601;48.718;8.992;2023-04-26T13:47:56;4.43;;;2.80;;
16969;SDS011;8601;48.718;8.992;2023-04-26T13:50:23;4.17;;;2.67;;
16969;SDS011;8601;48.718;8.992;2023-04-26T13:52:51;4.33;;;2.83;;
16969;SDS011;8601;48.718;8.992;2023-04-26T13:55:18;3.67;;;2.50;;
16969;SDS011;8601;48.718;8.992;2023-04-26T13:57:46;4.40;;;2.50;;
16969;SDS011;8601;48.718;8.992;2023-04-26T14:00:13;3.23;;;2.40;;
16969;SDS011;8601;48.718;8.992;2023-04-26T14:02:41;3.70;;;2.43;;
16969;SDS011;8601;48.718;8.992;2023-04-26T14:05:08;4.33;;;2.70;;
16969;SDS011;8601;48.718;8.992;2023-04-26T14:07:34;3.80;;;2.70;;
16969;SDS011;8601;48.718;8.992;2023-04-26T14:10:03;4.23;;;3.03;;
16969;SDS011;8601;48.718;8.992;2023-04-26T14:12:30;4.43;;;2.50;;
16969;SDS011;8601;48.718;8.992;2023-04-26T14:14:57;6.37;;;2.67;;
16969;SDS011;8601;48.718;8.992;2023-04-26T14:17:26;5.20;;;2.80;;
16969;SDS011;8601;48.718;8.992;2023-04-26T14:19:53;4.83;;;2.23;;
16969;SDS011;8601;48.718;8.992;2023-04-26T14:22:20;4.37;;;3.20;;
16969;SDS011;8601;48.718;8.992;2023-04-26T14:24:47;5.20;;;2.50;;
16969;SDS011;8601;48.718;8.992;2023-04-26T14:27:15;6.63;;;2.87;;
16969;SDS011;8601;48.718;8.992;2023-04-26T14:29:43;4.90;;;2.83;;
16969;SDS011;8601;48.718;8.992;2023-04-26T14:32:10;4.27;;;2.33;;
16969;SDS011;8601;48.718;8.992;2023-04-26T14:34:37;3.13;;;2.67;;
16969;SDS011;8601;48.718;8.992;2023-04-26T14:37:04;5.60;;;3.00;;
16969;SDS011;8601;48.718;8.992;2023-04-26T14:39:31;4.93;;;2.90;;
16969;SDS011;8601;48.718;8.992;2023-04-26T14:41:58;5.80;;;2.73;;
16969;SDS011;8601;48.718;8.992;2023-04-26T14:44:28;5.80;;;3.40;;
16969;SDS011;8601;48.718;8.992;2023-04-26T14:46:55;3.53;;;2.23;;
16969;SDS011;8601;48.718;8.992;2023-04-26T14:49:22;3.83;;;2.40;;
16969;SDS011;8601;48.718;8.992;2023-04-26T14:51:49;3.50;;;2.57;;
16969;SDS011;8601;48.718;8.992;2023-04-26T14:54:16;4.30;;;2.40;;
16969;SDS011;8601;48.718;8.992;2023-04-26T14:56:43;3.87;;;2.60;;
16969;SDS011;8601;48.718;8.992;2023-04-26T14:59:10;3.17;;;2.50;;
16969;SDS011;8601;48.718;8.992;2023-04-26T15:01:38;3.07;;;2.57;;
16969;SDS011;8601;48.718;8.992;2023-04-26T15:04:05;4.07;;;2.60;;
16969;SDS011;8601;48.718;8.992;2023-04-26T15:06:32;6.10;;;2.47;;
16969;SDS011;8601;48.718;8.992;2023-04-26T15:08:59;5.50;;;2.73;;
16969;SDS011;8601;48.718;8.992;2023-04-26T15:11:26;3.40;;;2.67;;
16969;SDS011;8601;48.718;8.992;2023-04-26T15:13:52;3.13;;;2.30;;
16969;SDS011;8601;48.718;8.992;2023-04-26T15:16:19;5.33;;;2.97;;
16969;SDS011;8601;48.718;8.992;2023-04-26T15:18:48;3.20;;;2.50;;